createdAt,value
2023-08-08T00:02:02.254Z,74570.66
2023-08-08T00:04:49.581Z,74572.72
2023-08-08T00:07:38.835Z,74585.13
2023-08-08T00:10:27.888Z,74589.25
2023-08-08T00:13:24.876Z,74589.25
2023-08-08T00:16:13.405Z,74589.25
2023-08-08T00:18:40.482Z,74589.25
2023-08-08T00:21:07.598Z,74587.19
2023-08-08T00:23:34.631Z,74589.25
2023-08-08T00:26:01.603Z,74593.38
2023-08-08T00:28:28.577Z,74593.38
2023-08-08T00:30:59.847Z,74585.13
2023-08-08T00:33:27.589Z,74597.53
2023-08-08T00:35:54.692Z,74599.59
2023-08-08T00:38:21.738Z,74597.53
2023-08-08T00:40:48.977Z,74599.59
2023-08-08T00:43:15.995Z,74601.66
2023-08-08T00:45:44.887Z,74605.78
2023-08-08T00:48:12.779Z,74614.06
2023-08-08T00:50:44.072Z,74609.94
2023-08-08T00:53:11.414Z,74620.25
2023-08-08T00:55:38.955Z,74618.19
2023-08-08T00:58:06.045Z,74622.34
2023-08-08T01:00:33.370Z,74626.47
2023-08-08T01:03:00.499Z,74634.72
2023-08-08T01:05:50.591Z,74636.81
2023-08-08T01:08:48.756Z,74643.00
2023-08-08T01:11:33.083Z,74638.88
2023-08-08T01:14:22.928Z,74638.88
2023-08-08T01:17:12.006Z,74638.88
2023-08-08T01:20:01.671Z,74647.13
2023-08-08T01:22:53.919Z,74655.41
2023-08-08T01:25:22.160Z,74663.66
2023-08-08T01:27:49.371Z,74667.81
2023-08-08T01:30:16.688Z,74667.81
2023-08-08T01:32:43.768Z,74676.06
2023-08-08T01:35:10.999Z,74676.06
2023-08-08T01:37:45.369Z,74682.28
2023-08-08T01:40:17.390Z,74686.41
2023-08-08T01:42:47.924Z,74686.41
2023-08-08T01:45:16.960Z,74690.53
2023-08-08T01:47:44.250Z,74700.88
2023-08-08T01:50:11.398Z,74707.09
2023-08-08T01:52:38.521Z,74713.28
2023-08-08T01:55:06.110Z,74721.56
2023-08-08T01:57:33.108Z,74731.88
2023-08-08T02:00:00.259Z,74733.97
2023-08-08T02:02:27.254Z,74740.16
2023-08-08T02:04:54.486Z,74746.34
2023-08-08T02:07:21.516Z,74754.63
2023-08-08T02:09:48.794Z,74764.97
2023-08-08T02:12:15.936Z,74764.97
2023-08-08T02:14:42.957Z,74764.97
2023-08-08T02:17:09.942Z,74771.16
2023-08-08T02:19:36.934Z,74767.03
2023-08-08T02:22:04.038Z,74762.91
2023-08-08T02:24:31.093Z,74771.16
2023-08-08T02:26:58.098Z,74773.22
2023-08-08T02:29:25.085Z,74773.22
2023-08-08T02:31:52.093Z,74787.69
2023-08-08T02:34:19.248Z,74789.78
2023-08-08T02:36:46.215Z,74791.84
2023-08-08T02:39:13.228Z,74791.84
2023-08-08T02:41:40.209Z,74787.69
2023-08-08T02:44:08.069Z,74802.16
2023-08-08T02:46:35.141Z,74798.03
2023-08-08T02:49:02.558Z,74812.50
2023-08-08T02:51:29.641Z,74808.38
2023-08-08T02:53:56.765Z,74810.44
2023-08-08T02:56:23.729Z,74822.84
2023-08-08T02:58:50.788Z,74822.84
2023-08-08T03:01:17.974Z,74820.78
2023-08-08T03:03:45.039Z,74829.03
2023-08-08T03:06:12.120Z,74833.19
2023-08-08T03:08:39.100Z,74843.53
2023-08-08T03:11:06.182Z,74839.38
2023-08-08T03:13:33.172Z,74849.72
2023-08-08T03:16:00.230Z,74843.53
2023-08-08T03:18:27.349Z,74851.78
2023-08-08T03:20:54.715Z,74853.84
2023-08-08T03:23:21.778Z,74849.72
2023-08-08T03:25:48.905Z,74858.00
2023-08-08T03:28:16.352Z,74855.91
2023-08-08T03:30:43.380Z,74866.25
2023-08-08T03:33:10.399Z,74868.31
2023-08-08T03:35:37.634Z,74864.19
2023-08-08T03:38:05.157Z,74862.13
2023-08-08T03:40:32.560Z,74870.38
2023-08-08T03:42:59.601Z,74868.31
2023-08-08T03:45:26.565Z,74864.19
2023-08-08T03:47:53.930Z,74864.19
2023-08-08T03:50:21.285Z,74864.19
2023-08-08T03:52:48.831Z,74866.25
2023-08-08T03:55:15.887Z,74866.25
2023-08-08T03:57:43.597Z,74866.25
2023-08-08T04:00:11.111Z,74864.19
2023-08-08T04:02:38.184Z,74862.13
2023-08-08T04:05:06.335Z,74866.25
2023-08-08T04:07:33.356Z,74860.06
2023-08-08T04:10:01.572Z,74860.06
2023-08-08T04:12:28.630Z,74858.00
2023-08-08T04:14:59.124Z,74845.59
2023-08-08T04:17:28.536Z,74845.59
2023-08-08T04:19:55.716Z,74860.06
2023-08-08T04:22:22.743Z,74858.00
2023-08-08T04:24:49.840Z,74858.00
2023-08-08T04:27:17.029Z,74845.59
2023-08-08T04:29:44.050Z,74851.78
2023-08-08T04:32:11.032Z,74849.72
2023-08-08T04:34:38.084Z,74839.38
2023-08-08T04:37:05.389Z,74833.19
2023-08-08T04:39:32.793Z,74835.25
2023-08-08T04:42:00.067Z,74831.13
2023-08-08T04:44:27.294Z,74820.78
2023-08-08T04:46:54.379Z,74829.03
2023-08-08T04:49:21.514Z,74837.31
2023-08-08T04:51:49.083Z,74835.25
2023-08-08T04:54:16.052Z,74841.44
2023-08-08T04:56:43.076Z,74843.53
2023-08-08T04:59:12.415Z,74835.25
2023-08-08T05:01:39.467Z,74820.78
2023-08-08T05:04:06.651Z,74808.38
2023-08-08T05:06:33.788Z,74785.63
2023-08-08T05:09:00.827Z,74787.69
2023-08-08T05:11:27.868Z,74791.84
2023-08-08T05:13:54.821Z,74798.03
2023-08-08T05:16:21.970Z,74804.25
2023-08-08T05:18:49.232Z,74802.16
2023-08-08T05:21:16.248Z,74783.56
2023-08-08T05:23:43.342Z,74771.16
2023-08-08T05:26:10.366Z,74756.69
2023-08-08T05:28:37.342Z,74758.75
2023-08-08T05:31:04.399Z,74746.34
2023-08-08T05:33:32.251Z,74750.50
2023-08-08T05:36:00.995Z,74733.97
2023-08-08T05:38:28.060Z,74723.63
2023-08-08T05:40:55.032Z,74719.47
2023-08-08T05:43:22.979Z,74692.63
2023-08-08T05:45:50.137Z,74688.47
2023-08-08T05:48:19.277Z,74688.47
2023-08-08T05:50:46.275Z,74702.94
2023-08-08T05:53:13.258Z,74709.16
2023-08-08T05:55:43.605Z,74700.88
2023-08-08T05:58:10.826Z,74698.81
2023-08-08T06:00:40.077Z,74711.22
2023-08-08T06:03:07.132Z,74709.16
2023-08-08T06:05:34.134Z,74713.28
2023-08-08T06:08:01.151Z,74740.16
2023-08-08T06:10:28.270Z,74717.41
2023-08-08T06:12:55.314Z,74676.06
2023-08-08T06:15:22.325Z,74624.41
2023-08-08T06:17:49.435Z,74581.00
2023-08-08T06:20:16.915Z,74562.38
2023-08-08T06:22:44.147Z,74545.84
2023-08-08T06:25:12.425Z,74521.03
2023-08-08T06:27:39.548Z,74500.38
2023-08-08T06:30:07.351Z,74477.63
2023-08-08T06:32:34.499Z,74500.38
2023-08-08T06:35:01.697Z,74473.50
2023-08-08T06:37:29.339Z,74438.38
2023-08-08T06:39:59.147Z,74434.22
2023-08-08T06:42:26.102Z,74452.84
2023-08-08T06:44:53.150Z,74461.09
2023-08-08T06:47:20.163Z,74440.44
2023-08-08T06:49:47.199Z,74401.16
2023-08-08T06:52:14.194Z,74394.94
2023-08-08T06:54:41.214Z,74411.50
2023-08-08T06:57:08.488Z,74423.88
2023-08-08T06:59:35.569Z,74415.63
2023-08-08T07:02:02.553Z,74415.63
2023-08-08T07:04:29.634Z,74401.16
2023-08-08T07:06:56.658Z,74378.41
2023-08-08T07:09:23.734Z,74380.47
2023-08-08T07:11:50.906Z,74370.16
2023-08-08T07:14:17.949Z,74366.00
2023-08-08T07:16:44.920Z,74349.47
2023-08-08T07:19:13.091Z,74341.22
2023-08-08T07:21:40.132Z,74366.00
2023-08-08T07:24:07.117Z,74347.41
2023-08-08T07:26:34.348Z,74349.47
2023-08-08T07:29:01.316Z,74339.16
2023-08-08T07:31:28.358Z,74330.88
2023-08-08T07:33:55.465Z,74343.28
2023-08-08T07:36:22.459Z,74339.16
2023-08-08T07:38:49.467Z,74341.22
2023-08-08T07:41:19.187Z,74361.88
2023-08-08T07:43:46.217Z,74380.47
2023-08-08T07:46:13.920Z,74399.09
2023-08-08T07:48:41.775Z,74378.41
2023-08-08T07:51:08.742Z,74345.34
2023-08-08T07:53:35.768Z,74308.13
2023-08-08T07:56:02.739Z,74293.66
2023-08-08T07:58:29.751Z,74289.53
2023-08-08T08:00:57.279Z,74308.13
2023-08-08T08:03:24.475Z,74337.06
2023-08-08T08:05:51.507Z,74328.81
2023-08-08T08:08:18.575Z,74339.16
2023-08-08T08:10:47.068Z,74376.34
2023-08-08T08:13:14.041Z,74388.75
2023-08-08T08:15:41.070Z,74399.09
2023-08-08T08:18:08.119Z,74399.09
2023-08-08T08:20:35.406Z,74384.63
2023-08-08T08:23:02.470Z,74386.69
2023-08-08T08:25:29.550Z,74376.34
2023-08-08T08:27:56.571Z,74386.69
2023-08-08T08:30:26.670Z,74399.09
2023-08-08T08:32:54.193Z,74411.50
2023-08-08T08:35:22.060Z,74415.63
2023-08-08T08:37:49.164Z,74394.94
2023-08-08T08:40:16.339Z,74382.56
2023-08-08T08:42:44.793Z,74343.28
2023-08-08T08:45:13.525Z,74343.28
2023-08-08T08:47:43.978Z,74345.34
2023-08-08T08:50:12.286Z,74353.63
2023-08-08T08:52:39.293Z,74357.75
2023-08-08T08:55:08.318Z,74366.00
2023-08-08T08:57:36.705Z,74345.34
2023-08-08T09:00:04.756Z,74328.81
2023-08-08T09:02:31.897Z,74324.69
2023-08-08T09:05:03.362Z,74332.94
2023-08-08T09:07:33.080Z,74320.53
2023-08-08T09:10:03.120Z,74332.94
2023-08-08T09:12:32.770Z,74322.59
2023-08-08T09:15:00.035Z,74316.41
2023-08-08T09:17:37.868Z,74320.53
2023-08-08T09:20:12.173Z,74335.00
2023-08-08T09:22:39.336Z,74341.22
2023-08-08T09:25:07.939Z,74324.69
2023-08-08T09:27:36.066Z,74312.28
2023-08-08T09:30:03.991Z,74308.13
2023-08-08T09:32:34.687Z,74324.69
2023-08-08T09:35:01.998Z,74351.53
2023-08-08T09:37:29.974Z,74374.28
2023-08-08T09:40:01.823Z,74388.75
2023-08-08T09:42:29.234Z,74403.22
2023-08-08T09:44:58.171Z,74405.28
2023-08-08T09:47:32.035Z,74411.50
2023-08-08T09:50:07.911Z,74409.41
2023-08-08T09:52:37.193Z,74392.88
2023-08-08T09:55:04.774Z,74399.09
2023-08-08T09:57:32.060Z,74407.34
2023-08-08T09:59:59.168Z,74417.69
2023-08-08T10:02:26.587Z,74423.88
2023-08-08T10:04:56.021Z,74430.09
2023-08-08T10:07:24.278Z,74430.09
2023-08-08T10:09:51.783Z,74409.41
2023-08-08T10:12:19.030Z,74388.75
2023-08-08T10:14:46.744Z,74392.88
2023-08-08T10:17:17.397Z,74394.94
2023-08-08T10:19:56.235Z,74399.09
2023-08-08T10:22:25.887Z,74390.81
2023-08-08T10:24:55.295Z,74372.22
2023-08-08T10:27:39.561Z,74345.34
2023-08-08T10:30:11.944Z,74337.06
2023-08-08T10:32:43.865Z,74320.53
2023-08-08T10:35:13.070Z,74312.28
2023-08-08T10:37:40.734Z,74308.13
2023-08-08T10:40:09.071Z,74277.13
2023-08-08T10:42:43.684Z,74237.88
2023-08-08T10:45:15.676Z,74194.47
2023-08-08T10:47:43.703Z,74155.19
2023-08-08T10:50:13.281Z,74144.84
2023-08-08T10:52:54.387Z,74126.25
2023-08-08T10:55:22.332Z,74122.13
2023-08-08T10:58:09.692Z,74149.00
2023-08-08T11:00:38.352Z,74184.13
2023-08-08T11:03:08.395Z,74177.94
2023-08-08T11:05:39.922Z,74196.53
2023-08-08T11:08:08.445Z,74211.00
2023-08-08T11:10:41.921Z,74231.66
2023-08-08T11:13:10.026Z,74244.06
2023-08-08T11:15:39.875Z,74239.94
2023-08-08T11:18:07.511Z,74225.47
2023-08-08T11:20:36.541Z,74217.19
2023-08-08T11:23:07.299Z,74279.22
2023-08-08T11:25:34.473Z,74339.16
2023-08-08T11:28:01.536Z,74355.69
2023-08-08T11:30:35.224Z,74357.75
2023-08-08T11:35:33.045Z,74347.41
2023-08-08T11:38:01.422Z,74332.94
2023-08-08T11:40:30.288Z,74297.81
2023-08-08T11:43:00.801Z,74262.66
2023-08-08T11:45:27.964Z,74217.19
2023-08-08T11:47:56.686Z,74208.94
2023-08-08T11:50:25.862Z,74192.41
2023-08-08T11:52:55.227Z,74177.94
2023-08-08T11:55:28.574Z,74186.19
2023-08-08T11:58:03.601Z,74177.94
2023-08-08T12:00:32.180Z,74155.19
2023-08-08T12:03:01.912Z,74120.06
2023-08-08T12:05:29.846Z,74101.44
2023-08-08T12:07:57.013Z,74089.06
2023-08-08T12:10:25.171Z,74105.59
2023-08-08T12:12:58.911Z,74115.91
2023-08-08T12:15:31.068Z,74155.19
2023-08-08T12:18:00.886Z,74180.00
2023-08-08T12:20:32.383Z,74190.31
2023-08-08T12:23:00.512Z,74175.84
2023-08-08T12:25:27.690Z,74167.59
2023-08-08T12:27:54.904Z,74169.66
2023-08-08T12:30:21.902Z,74151.06
2023-08-08T12:32:49.201Z,74144.84
2023-08-08T12:35:17.869Z,74151.06
2023-08-08T12:37:44.913Z,74126.25
2023-08-08T12:40:12.726Z,74095.25
2023-08-08T12:42:39.930Z,74082.84
2023-08-08T12:45:08.481Z,74084.91
2023-08-08T12:47:38.832Z,74105.59
2023-08-08T12:50:06.917Z,74113.84
2023-08-08T12:52:33.961Z,74149.00
2023-08-08T12:55:01.108Z,74167.59
2023-08-08T12:57:28.091Z,74159.31
2023-08-08T12:59:55.315Z,74167.59
2023-08-08T13:02:22.481Z,74138.66
2023-08-08T13:04:49.515Z,74118.00
2023-08-08T13:07:16.789Z,74105.59
2023-08-08T13:09:45.063Z,74111.78
2023-08-08T13:12:12.103Z,74126.25
2023-08-08T13:14:39.142Z,74151.06
2023-08-08T13:17:06.267Z,74171.72
2023-08-08T13:19:33.243Z,74177.94
2023-08-08T13:22:00.989Z,74177.94
2023-08-08T13:24:28.253Z,74155.19
2023-08-08T13:26:55.227Z,74149.00
2023-08-08T13:29:22.241Z,74142.78
2023-08-08T13:31:49.234Z,74118.00
2023-08-08T13:34:16.322Z,74118.00
2023-08-08T13:36:43.549Z,74126.25
2023-08-08T13:39:13.218Z,74111.78
2023-08-08T13:41:40.204Z,74086.97
2023-08-08T13:44:07.266Z,74093.19
2023-08-08T13:46:34.797Z,74078.72
2023-08-08T13:49:01.863Z,74055.97
2023-08-08T13:51:28.932Z,74051.84
2023-08-08T13:53:56.039Z,74060.13
2023-08-08T13:56:23.468Z,74078.72
2023-08-08T13:58:50.607Z,74086.97
2023-08-08T14:01:17.636Z,74118.00
2023-08-08T14:03:45.958Z,74118.00
2023-08-08T14:06:13.134Z,74124.19
2023-08-08T14:08:40.170Z,74124.19
2023-08-08T14:11:07.222Z,74130.38
2023-08-08T14:13:38.832Z,74132.44
2023-08-08T14:16:05.935Z,74134.53
2023-08-08T14:18:32.944Z,74136.59
2023-08-08T14:21:00.397Z,74122.13
2023-08-08T14:23:27.441Z,74107.66
2023-08-08T14:25:54.384Z,74082.84
2023-08-08T14:28:23.057Z,74064.25
2023-08-08T14:30:51.066Z,74093.19
2023-08-08T14:33:18.251Z,74078.72
2023-08-08T14:35:45.335Z,74064.25
2023-08-08T14:38:12.310Z,74043.59
2023-08-08T14:40:39.324Z,74022.91
2023-08-08T14:43:11.471Z,74014.66
2023-08-08T14:45:39.933Z,73989.84
2023-08-08T14:48:08.203Z,73993.97
2023-08-08T14:50:35.656Z,73998.13
2023-08-08T14:53:02.857Z,74000.19
2023-08-08T14:55:29.919Z,73996.03
2023-08-08T14:57:57.391Z,74018.78
2023-08-08T15:00:24.355Z,74027.03
2023-08-08T15:02:51.350Z,74045.66
2023-08-08T15:05:18.424Z,74060.13
2023-08-08T15:07:45.584Z,74068.38
2023-08-08T15:10:12.809Z,74080.78
2023-08-08T15:12:41.013Z,74074.59
2023-08-08T15:15:09.372Z,74086.97
2023-08-08T15:17:45.421Z,74078.72
2023-08-08T15:20:12.522Z,74084.91
2023-08-08T15:22:39.571Z,74072.50
2023-08-08T15:25:06.845Z,74060.13
2023-08-08T15:27:33.826Z,74055.97
2023-08-08T15:30:00.762Z,74072.50
2023-08-08T15:32:27.892Z,74089.06
2023-08-08T15:34:54.913Z,74082.84
2023-08-08T15:37:21.910Z,74078.72
2023-08-08T15:39:48.984Z,74084.91
2023-08-08T15:42:16.224Z,74095.25
2023-08-08T15:44:43.308Z,74093.19
2023-08-08T15:47:10.345Z,74080.78
2023-08-08T15:49:37.347Z,74093.19
2023-08-08T15:52:04.571Z,74105.59
2023-08-08T15:54:31.558Z,74126.25
2023-08-08T15:56:58.892Z,74140.72
2023-08-08T15:59:26.255Z,74163.47
2023-08-08T16:01:53.215Z,74190.31
2023-08-08T16:04:20.278Z,74204.78
2023-08-08T16:06:48.961Z,74213.06
2023-08-08T16:09:15.979Z,74229.59
2023-08-08T16:11:43.003Z,74225.47
2023-08-08T16:14:10.045Z,74225.47
2023-08-08T16:16:37.046Z,74239.94
2023-08-08T16:19:04.651Z,74250.25
2023-08-08T16:21:31.747Z,74248.19
2023-08-08T16:23:58.677Z,74246.13
2023-08-08T16:26:25.756Z,74246.13
2023-08-08T16:28:52.767Z,74242.00
2023-08-08T16:31:19.782Z,74239.94
2023-08-08T16:33:46.818Z,74233.72
2023-08-08T16:36:13.898Z,74227.53
2023-08-08T16:38:40.881Z,74215.13
2023-08-08T16:41:08.090Z,74202.72
2023-08-08T16:43:39.669Z,74192.41
2023-08-08T16:46:09.764Z,74180.00
2023-08-08T16:48:37.021Z,74175.84
2023-08-08T16:51:04.372Z,74167.59
2023-08-08T16:53:31.396Z,74171.72
2023-08-08T16:55:58.418Z,74175.84
2023-08-08T16:58:25.832Z,74204.78
2023-08-08T17:00:55.376Z,74194.47
2023-08-08T17:03:22.588Z,74204.78
2023-08-08T17:05:49.570Z,74208.94
2023-08-08T17:08:16.590Z,74202.72
2023-08-08T17:10:43.881Z,74206.88
2023-08-08T17:13:11.253Z,74213.06
2023-08-08T17:15:38.258Z,74217.19
2023-08-08T17:18:05.543Z,74225.47
2023-08-08T17:20:32.717Z,74223.41
2023-08-08T17:22:59.831Z,74237.88
2023-08-08T17:25:26.919Z,74242.00
2023-08-08T17:27:53.922Z,74254.41
2023-08-08T17:30:20.942Z,74262.66
2023-08-08T17:32:48.158Z,74273.00
2023-08-08T17:35:15.346Z,74285.41
2023-08-08T17:37:42.412Z,74301.94
2023-08-08T17:40:10.837Z,74304.00
2023-08-08T17:42:38.141Z,74326.75
2023-08-08T17:45:05.742Z,74339.16
2023-08-08T17:47:32.878Z,74349.47
2023-08-08T17:50:00.633Z,74366.00
2023-08-08T17:52:27.676Z,74372.22
2023-08-08T17:54:54.635Z,74382.56
2023-08-08T17:57:21.617Z,74403.22
2023-08-08T17:59:48.626Z,74411.50
2023-08-08T18:02:15.714Z,74419.75
2023-08-08T18:04:42.700Z,74432.16
2023-08-08T18:07:09.763Z,74440.44
2023-08-08T18:09:36.840Z,74448.69
2023-08-08T18:12:04.201Z,74463.16
2023-08-08T18:14:31.730Z,74463.16
2023-08-08T18:16:58.905Z,74465.22
2023-08-08T18:19:25.923Z,74473.50
2023-08-08T18:21:52.927Z,74479.69
2023-08-08T18:24:22.126Z,74485.91
2023-08-08T18:26:49.107Z,74494.16
2023-08-08T18:29:16.115Z,74502.44
2023-08-08T18:31:43.941Z,74512.78
2023-08-08T18:34:11.374Z,74514.84
2023-08-08T18:36:38.432Z,74521.03
2023-08-08T18:39:07.333Z,74527.25
2023-08-08T18:42:20.930Z,74533.44
2023-08-08T18:44:48.279Z,74539.66
2023-08-08T18:47:15.335Z,74541.72
2023-08-08T18:49:42.407Z,74539.66
2023-08-08T18:52:09.396Z,74549.97
2023-08-08T18:54:36.511Z,74549.97
2023-08-08T18:57:03.548Z,74560.31
2023-08-08T18:59:30.624Z,74572.72
2023-08-08T19:01:57.749Z,74574.78
2023-08-08T19:04:24.846Z,74587.19
2023-08-08T19:06:51.888Z,74585.13
2023-08-08T19:09:20.261Z,74593.38
2023-08-08T19:11:47.227Z,74595.47
2023-08-08T19:14:14.246Z,74585.13
2023-08-08T19:16:41.264Z,74587.19
2023-08-08T19:19:08.410Z,74587.19
2023-08-08T19:21:35.480Z,74585.13
2023-08-08T19:24:02.507Z,74585.13
2023-08-08T19:26:30.354Z,74576.84
2023-08-08T19:28:58.175Z,74572.72
2023-08-08T19:31:25.270Z,74570.66
2023-08-08T19:34:05.441Z,74576.84
2023-08-08T19:36:41.486Z,74576.84
2023-08-08T19:39:09.008Z,74576.84
2023-08-08T19:41:36.035Z,74564.44
2023-08-08T19:44:03.111Z,74562.38
2023-08-08T19:46:30.227Z,74552.03
2023-08-08T19:48:57.305Z,74556.19
2023-08-08T19:51:24.576Z,74558.25
2023-08-08T19:53:51.696Z,74549.97
2023-08-08T19:56:18.758Z,74549.97
2023-08-08T19:58:45.978Z,74549.97
2023-08-08T20:01:13.153Z,74549.97
2023-08-08T20:03:42.229Z,74549.97
2023-08-08T20:06:09.352Z,74552.03
2023-08-08T20:08:36.435Z,74556.19
2023-08-08T20:11:04.889Z,74547.91
2023-08-08T20:13:31.859Z,74552.03
2023-08-08T20:15:59.192Z,74560.31
2023-08-08T20:18:26.415Z,74570.66
2023-08-08T20:20:53.630Z,74572.72
2023-08-08T20:23:20.744Z,74568.59
2023-08-08T20:25:48.237Z,74576.84
2023-08-08T20:28:15.174Z,74576.84
2023-08-08T20:30:44.349Z,74572.72
2023-08-08T20:33:11.643Z,74572.72
2023-08-08T20:35:38.785Z,74576.84
2023-08-08T20:38:05.847Z,74578.91
2023-08-08T20:40:32.860Z,74585.13
2023-08-08T20:42:59.838Z,74572.72
2023-08-08T20:45:26.972Z,74572.72
2023-08-08T20:47:53.958Z,74568.59
2023-08-08T20:50:21.545Z,74568.59
2023-08-08T20:52:50.107Z,74568.59
2023-08-08T20:55:17.089Z,74572.72
2023-08-08T20:57:44.126Z,74576.84
2023-08-08T21:00:11.848Z,74570.66
2023-08-08T21:02:39.087Z,74564.44
2023-08-08T21:05:07.298Z,74566.53
2023-08-08T21:07:35.670Z,74564.44
2023-08-08T21:10:03.489Z,74568.59
2023-08-08T21:12:30.786Z,74570.66
2023-08-08T21:15:00.686Z,74572.72
2023-08-08T21:17:28.620Z,74589.25
2023-08-08T21:19:55.603Z,74589.25
2023-08-08T21:22:23.626Z,74591.31
2023-08-08T21:24:50.676Z,74593.38
2023-08-08T21:27:17.795Z,74601.66
2023-08-08T21:29:46.184Z,74612.00
2023-08-08T21:32:13.476Z,74620.25
2023-08-08T21:34:40.506Z,74622.34
2023-08-08T21:37:07.470Z,74616.13
2023-08-08T21:39:34.420Z,74614.06
2023-08-08T21:42:01.418Z,74603.72
2023-08-08T21:44:28.415Z,74605.78
2023-08-08T21:46:55.426Z,74601.66
2023-08-08T21:49:22.568Z,74597.53
2023-08-08T21:51:49.648Z,74593.38
2023-08-08T21:54:18.245Z,74589.25
2023-08-08T21:56:46.686Z,74605.78
2023-08-08T21:59:13.747Z,74601.66
2023-08-08T22:01:40.861Z,74616.13
2023-08-08T22:04:07.936Z,74614.06
2023-08-08T22:06:35.092Z,74609.94
2023-08-08T22:09:02.419Z,74618.19
2023-08-08T22:11:29.551Z,74618.19
2023-08-08T22:13:56.813Z,74630.59
2023-08-08T22:16:23.946Z,74634.72
2023-08-08T22:18:50.952Z,74638.88
2023-08-08T22:21:18.007Z,74645.06
2023-08-08T22:23:45.061Z,74659.53
2023-08-08T22:26:12.064Z,74649.19
2023-08-08T22:28:39.045Z,74659.53
2023-08-08T22:31:08.989Z,74669.88
2023-08-08T22:33:38.920Z,74663.66
2023-08-08T22:36:06.112Z,74657.47
2023-08-08T22:38:33.104Z,74657.47
2023-08-08T22:41:09.188Z,74647.13
2023-08-08T22:43:39.019Z,74653.34
2023-08-08T22:46:18.169Z,74651.28
2023-08-08T22:48:45.647Z,74655.41
2023-08-08T22:51:12.673Z,74657.47
2023-08-08T22:53:39.624Z,74655.41
2023-08-08T22:56:06.635Z,74661.59
2023-08-08T22:58:36.569Z,74663.66
2023-08-08T23:01:03.850Z,74663.66
2023-08-08T23:03:30.944Z,74671.94
2023-08-08T23:05:58.177Z,74676.06
2023-08-08T23:08:29.657Z,74682.28
2023-08-08T23:10:59.121Z,74688.47
2023-08-08T23:13:26.577Z,74698.81
2023-08-08T23:15:53.757Z,74705.00
2023-08-08T23:18:23.646Z,74723.63
2023-08-08T23:20:56.792Z,74723.63
2023-08-08T23:23:26.615Z,74721.56
2023-08-08T23:25:57.256Z,74727.75
2023-08-08T23:28:27.395Z,74725.69
2023-08-08T23:30:57.557Z,74725.69
2023-08-08T23:33:27.642Z,74733.97
2023-08-08T23:35:57.539Z,74733.97
2023-08-08T23:38:30.409Z,74729.81
2023-08-08T23:40:57.387Z,74736.03
2023-08-08T23:43:25.125Z,74742.22
2023-08-08T23:45:52.285Z,74742.22
2023-08-08T23:48:19.486Z,74742.22
2023-08-08T23:53:45.526Z,74746.34
2023-08-08T23:56:12.528Z,74746.34
2023-08-08T23:58:39.599Z,74746.34
